sensor_id;sensor_type;location;lat;lon;timestamp;pressure;altitude;pressure_sealevel;temperature;humidity
24031;BME280;12240;51.142;22.486;2023-04-07T00:00:12;99011.19;;;4.22;100.00
24031;BME280;12240;51.142;22.486;2023-04-07T00:02:41;99012.16;;;4.21;100.00
24031;BME280;12240;51.142;22.486;2023-04-07T00:05:12;99011.56;;;4.17;100.00
24031;BME280;12240;51.142;22.486;2023-04-07T00:07:40;99012.63;;;4.15;100.00
24031;BME280;12240;51.142;22.486;2023-04-07T00:10:24;99010.25;;;4.23;100.00
24031;BME280;12240;51.142;22.486;2023-04-07T00:12:52;99002.69;;;4.18;100.00
24031;BME280;12240;51.142;22.486;2023-04-07T00:15:20;99003.78;;;4.16;100.00
24031;BME280;12240;51.142;22.486;2023-04-07T00:17:49;99000.75;;;4.20;100.00
24031;BME280;12240;51.142;22.486;2023-04-07T00:20:17;99012.03;;;4.22;100.00
24031;BME280;12240;51.142;22.486;2023-04-07T00:22:46;98999.69;;;4.23;100.00
24031;BME280;12240;51.142;22.486;2023-04-07T00:25:15;98994.31;;;4.24;100.00
24031;BME280;12240;51.142;22.486;2023-04-07T00:27:43;99004.34;;;4.30;100.00
24031;BME280;12240;51.142;22.486;2023-04-07T00:30:11;99002.56;;;4.31;100.00
24031;BME280;12240;51.142;22.486;2023-04-07T00:32:39;99004.34;;;4.30;100.00
24031;BME280;12240;51.142;22.486;2023-04-07T00:35:08;98999.91;;;4.31;100.00
24031;BME280;12240;51.142;22.486;2023-04-07T00:37:37;99001.56;;;4.32;100.00
24031;BME280;12240;51.142;22.486;2023-04-07T00:40:06;98996.81;;;4.26;100.00
24031;BME280;12240;51.142;22.486;2023-04-07T00:42:35;98994.44;;;4.23;100.00
24031;BME280;12240;51.142;22.486;2023-04-07T00:45:04;98988.44;;;4.21;100.00
24031;BME280;12240;51.142;22.486;2023-04-07T00:47:33;98991.03;;;4.32;100.00
24031;BME280;12240;51.142;22.486;2023-04-07T00:50:03;98992.38;;;4.26;100.00
24031;BME280;12240;51.142;22.486;2023-04-07T00:52:32;98989.13;;;4.34;100.00
24031;BME280;12240;51.142;22.486;2023-04-07T00:55:01;98989.97;;;4.34;100.00
24031;BME280;12240;51.142;22.486;2023-04-07T00:57:30;98993.44;;;4.35;100.00
24031;BME280;12240;51.142;22.486;2023-04-07T00:59:59;98991.63;;;4.35;100.00
24031;BME280;12240;51.142;22.486;2023-04-07T01:02:40;98993.19;;;4.38;100.00
24031;BME280;12240;51.142;22.486;2023-04-07T01:05:22;98984.44;;;4.37;100.00
24031;BME280;12240;51.142;22.486;2023-04-07T01:08:29;98985.16;;;4.39;100.00
24031;BME280;12240;51.142;22.486;2023-04-07T01:11:27;98979.88;;;4.39;100.00
24031;BME280;12240;51.142;22.486;2023-04-07T01:13:59;98984.56;;;4.36;100.00
24031;BME280;12240;51.142;22.486;2023-04-07T01:16:51;98980.03;;;4.27;100.00
24031;BME280;12240;51.142;22.486;2023-04-07T01:19:57;98981.94;;;4.25;100.00
24031;BME280;12240;51.142;22.486;2023-04-07T01:22:32;98978.84;;;4.31;100.00
24031;BME280;12240;51.142;22.486;2023-04-07T01:30:33;98974.16;;;4.34;100.00
24031;BME280;12240;51.142;22.486;2023-04-07T01:33:04;98979.03;;;4.39;100.00
24031;BME280;12240;51.142;22.486;2023-04-07T01:35:35;98979.16;;;4.37;100.00
24031;BME280;12240;51.142;22.486;2023-04-07T01:38:04;98971.50;;;4.45;100.00
24031;BME280;12240;51.142;22.486;2023-04-07T01:40:34;98973.75;;;4.50;100.00
24031;BME280;12240;51.142;22.486;2023-04-07T01:43:05;98981.50;;;4.62;100.00
24031;BME280;12240;51.142;22.486;2023-04-07T01:45:35;98975.66;;;4.59;100.00
24031;BME280;12240;51.142;22.486;2023-04-07T01:48:07;98962.94;;;4.53;100.00
24031;BME280;12240;51.142;22.486;2023-04-07T01:50:37;98960.56;;;4.50;100.00
24031;BME280;12240;51.142;22.486;2023-04-07T01:53:06;98962.09;;;4.52;100.00
24031;BME280;12240;51.142;22.486;2023-04-07T01:55:35;98956.03;;;4.52;100.00
24031;BME280;12240;51.142;22.486;2023-04-07T01:58:07;98954.78;;;4.56;100.00
24031;BME280;12240;51.142;22.486;2023-04-07T02:00:40;98949.16;;;4.60;100.00
24031;BME280;12240;51.142;22.486;2023-04-07T02:03:20;98950.81;;;4.61;100.00
24031;BME280;12240;51.142;22.486;2023-04-07T02:05:54;98948.19;;;4.61;100.00
24031;BME280;12240;51.142;22.486;2023-04-07T02:08:28;98956.22;;;4.60;100.00
24031;BME280;12240;51.142;22.486;2023-04-07T02:11:00;98951.41;;;4.65;100.00
24031;BME280;12240;51.142;22.486;2023-04-07T02:13:34;98949.88;;;4.62;100.00
24031;BME280;12240;51.142;22.486;2023-04-07T02:16:06;98953.66;;;4.69;100.00
24031;BME280;12240;51.142;22.486;2023-04-07T02:18:36;98956.19;;;4.71;100.00
24031;BME280;12240;51.142;22.486;2023-04-07T02:21:05;98954.75;;;4.67;100.00
24031;BME280;12240;51.142;22.486;2023-04-07T02:23:38;98965.69;;;4.62;100.00
24031;BME280;12240;51.142;22.486;2023-04-07T02:26:08;98961.75;;;4.57;100.00
24031;BME280;12240;51.142;22.486;2023-04-07T02:28:39;98962.00;;;4.54;100.00
24031;BME280;12240;51.142;22.486;2023-04-07T02:31:07;98958.53;;;4.53;100.00
24031;BME280;12240;51.142;22.486;2023-04-07T02:33:35;98954.09;;;4.54;100.00
24031;BME280;12240;51.142;22.486;2023-04-07T02:36:03;98955.88;;;4.53;100.00
24031;BME280;12240;51.142;22.486;2023-04-07T02:38:31;98955.88;;;4.53;100.00
24031;BME280;12240;51.142;22.486;2023-04-07T02:40:59;98947.41;;;4.50;100.00
24031;BME280;12240;51.142;22.486;2023-04-07T02:43:29;98952.66;;;4.50;100.00
24031;BME280;12240;51.142;22.486;2023-04-07T02:45:57;98945.47;;;4.52;100.00
24031;BME280;12240;51.142;22.486;2023-04-07T02:48:25;98950.94;;;4.60;100.00
24031;BME280;12240;51.142;22.486;2023-04-07T02:50:53;98950.94;;;4.60;100.00
24031;BME280;12240;51.142;22.486;2023-04-07T02:53:21;98947.34;;;4.61;100.00
24031;BME280;12240;51.142;22.486;2023-04-07T02:55:49;98954.88;;;4.65;100.00
24031;BME280;12240;51.142;22.486;2023-04-07T02:58:18;98953.19;;;4.64;100.00
24031;BME280;12240;51.142;22.486;2023-04-07T03:00:48;98954.50;;;4.70;100.00
24031;BME280;12240;51.142;22.486;2023-04-07T03:03:21;98952.31;;;4.75;100.00
24031;BME280;12240;51.142;22.486;2023-04-07T03:06:13;98945.97;;;4.78;100.00
24031;BME280;12240;51.142;22.486;2023-04-07T03:08:53;98953.88;;;4.78;100.00
24031;BME280;12240;51.142;22.486;2023-04-07T03:11:21;98948.03;;;4.74;100.00
24031;BME280;12240;51.142;22.486;2023-04-07T03:13:49;98946.69;;;4.80;100.00
24031;BME280;12240;51.142;22.486;2023-04-07T03:16:18;98946.44;;;4.83;100.00
24031;BME280;12240;51.142;22.486;2023-04-07T03:18:58;98947.84;;;4.87;100.00
24031;BME280;12240;51.142;22.486;2023-04-07T03:21:26;98943.97;;;4.91;100.00
24031;BME280;12240;51.142;22.486;2023-04-07T03:23:55;98950.69;;;4.95;100.00
24031;BME280;12240;51.142;22.486;2023-04-07T03:26:23;98941.22;;;4.92;100.00
24031;BME280;12240;51.142;22.486;2023-04-07T03:28:51;98951.53;;;4.95;100.00
24031;BME280;12240;51.142;22.486;2023-04-07T03:31:20;98952.34;;;4.96;100.00
24031;BME280;12240;51.142;22.486;2023-04-07T03:33:50;98954.34;;;5.03;100.00
24031;BME280;12240;51.142;22.486;2023-04-07T03:36:20;98952.44;;;5.05;100.00
24031;BME280;12240;51.142;22.486;2023-04-07T03:38:48;98959.38;;;5.06;100.00
24031;BME280;12240;51.142;22.486;2023-04-07T03:41:18;98957.72;;;5.05;100.00
24031;BME280;12240;51.142;22.486;2023-04-07T03:43:47;98951.31;;;5.08;100.00
24031;BME280;12240;51.142;22.486;2023-04-07T03:46:15;98944.56;;;5.15;100.00
24031;BME280;12240;51.142;22.486;2023-04-07T03:48:44;98943.22;;;5.20;100.00
24031;BME280;12240;51.142;22.486;2023-04-07T03:51:13;98935.44;;;5.19;100.00
24031;BME280;12240;51.142;22.486;2023-04-07T03:53:41;98937.31;;;5.28;100.00
24031;BME280;12240;51.142;22.486;2023-04-07T03:56:21;98940.53;;;5.31;100.00
24031;BME280;12240;51.142;22.486;2023-04-07T03:58:50;98942.75;;;5.36;100.00
24031;BME280;12240;51.142;22.486;2023-04-07T04:01:32;98938.06;;;5.39;100.00
24031;BME280;12240;51.142;22.486;2023-04-07T04:04:07;98940.44;;;5.42;100.00
24031;BME280;12240;51.142;22.486;2023-04-07T04:06:36;98926.97;;;5.45;100.00
24031;BME280;12240;51.142;22.486;2023-04-07T04:09:25;98931.72;;;5.51;100.00
24031;BME280;12240;51.142;22.486;2023-04-07T04:11:53;98938.16;;;5.58;100.00
24031;BME280;12240;51.142;22.486;2023-04-07T04:14:21;98937.44;;;5.56;100.00
24031;BME280;12240;51.142;22.486;2023-04-07T04:16:57;98935.31;;;5.71;100.00
24031;BME280;12240;51.142;22.486;2023-04-07T04:19:33;98938.75;;;5.71;100.00
24031;BME280;12240;51.142;22.486;2023-04-07T04:22:06;98939.47;;;5.73;100.00
24031;BME280;12240;51.142;22.486;2023-04-07T04:24:41;98936.06;;;5.82;100.00
24031;BME280;12240;51.142;22.486;2023-04-07T04:27:09;98938.75;;;5.92;100.00
24031;BME280;12240;51.142;22.486;2023-04-07T04:29:38;98944.72;;;5.94;100.00
24031;BME280;12240;51.142;22.486;2023-04-07T04:32:09;98944.06;;;6.02;100.00
24031;BME280;12240;51.142;22.486;2023-04-07T04:34:38;98942.00;;;6.05;100.00
24031;BME280;12240;51.142;22.486;2023-04-07T04:37:06;98941.72;;;6.08;100.00
24031;BME280;12240;51.142;22.486;2023-04-07T04:39:34;98942.28;;;6.12;100.00
24031;BME280;12240;51.142;22.486;2023-04-07T04:42:04;98941.59;;;6.19;100.00
24031;BME280;12240;51.142;22.486;2023-04-07T04:44:35;98938.84;;;6.21;100.00
24031;BME280;12240;51.142;22.486;2023-04-07T04:47:06;98942.16;;;6.23;100.00
24031;BME280;12240;51.142;22.486;2023-04-07T04:49:36;98939.97;;;6.28;100.00
24031;BME280;12240;51.142;22.486;2023-04-07T04:52:05;98943.03;;;6.33;100.00
24031;BME280;12240;51.142;22.486;2023-04-07T04:54:39;98940.81;;;6.38;100.00
24031;BME280;12240;51.142;22.486;2023-04-07T04:57:09;98942.19;;;6.42;100.00
24031;BME280;12240;51.142;22.486;2023-04-07T04:59:38;98944.88;;;6.51;100.00
24031;BME280;12240;51.142;22.486;2023-04-07T05:02:07;98932.59;;;6.50;100.00
24031;BME280;12240;51.142;22.486;2023-04-07T05:04:35;98942.38;;;6.59;100.00
24031;BME280;12240;51.142;22.486;2023-04-07T05:07:25;98942.94;;;6.63;100.00
24031;BME280;12240;51.142;22.486;2023-04-07T05:09:55;98942.78;;;6.64;100.00
24031;BME280;12240;51.142;22.486;2023-04-07T05:12:24;98932.91;;;6.66;100.00
24031;BME280;12240;51.142;22.486;2023-04-07T05:14:58;98935.84;;;6.73;100.00
24031;BME280;12240;51.142;22.486;2023-04-07T05:17:26;98936.94;;;6.80;100.00
24031;BME280;12240;51.142;22.486;2023-04-07T05:19:59;98932.78;;;6.87;100.00
24031;BME280;12240;51.142;22.486;2023-04-07T05:22:37;98938.34;;;6.93;100.00
24031;BME280;12240;51.142;22.486;2023-04-07T05:25:08;98936.94;;;6.99;100.00
24031;BME280;12240;51.142;22.486;2023-04-07T05:27:38;98931.09;;;7.05;100.00
24031;BME280;12240;51.142;22.486;2023-04-07T05:30:13;98929.69;;;7.10;100.00
24031;BME280;12240;51.142;22.486;2023-04-07T05:32:43;98940.56;;;7.17;100.00
24031;BME280;12240;51.142;22.486;2023-04-07T05:35:23;98937.47;;;7.22;100.00
24031;BME280;12240;51.142;22.486;2023-04-07T05:37:55;98942.88;;;7.30;100.00
24031;BME280;12240;51.142;22.486;2023-04-07T05:40:24;98939.41;;;7.39;100.00
24031;BME280;12240;51.142;22.486;2023-04-07T05:42:54;98942.00;;;7.48;100.00
24031;BME280;12240;51.142;22.486;2023-04-07T05:45:22;98939.25;;;7.50;100.00
24031;BME280;12240;51.142;22.486;2023-04-07T05:47:51;98938.09;;;7.52;100.00
24031;BME280;12240;51.142;22.486;2023-04-07T05:50:26;98941.69;;;7.61;100.00
24031;BME280;12240;51.142;22.486;2023-04-07T05:52:57;98940.84;;;7.70;100.00
24031;BME280;12240;51.142;22.486;2023-04-07T05:55:27;98944.59;;;7.77;100.00
24031;BME280;12240;51.142;22.486;2023-04-07T05:57:55;98946.47;;;7.84;100.00
24031;BME280;12240;51.142;22.486;2023-04-07T06:00:27;98943.28;;;7.90;100.00
24031;BME280;12240;51.142;22.486;2023-04-07T06:03:03;98948.97;;;7.95;100.00
24031;BME280;12240;51.142;22.486;2023-04-07T06:05:40;98947.00;;;7.97;100.00
24031;BME280;12240;51.142;22.486;2023-04-07T06:08:12;98946.72;;;8.00;100.00
24031;BME280;12240;51.142;22.486;2023-04-07T06:10:40;98946.41;;;8.03;100.00
24031;BME280;12240;51.142;22.486;2023-04-07T06:13:09;98953.09;;;8.07;100.00
24031;BME280;12240;51.142;22.486;2023-04-07T06:15:37;98942.50;;;8.07;100.00
24031;BME280;12240;51.142;22.486;2023-04-07T06:18:06;98959.47;;;8.14;100.00
24031;BME280;12240;51.142;22.486;2023-04-07T06:20:34;98958.34;;;8.17;100.00
24031;BME280;12240;51.142;22.486;2023-04-07T06:23:03;98962.81;;;8.16;100.00
24031;BME280;12240;51.142;22.486;2023-04-07T06:25:32;98953.56;;;8.20;100.00
24031;BME280;12240;51.142;22.486;2023-04-07T06:28:00;98960.84;;;8.28;100.00
24031;BME280;12240;51.142;22.486;2023-04-07T06:30:29;98954.16;;;8.24;100.00
24031;BME280;12240;51.142;22.486;2023-04-07T06:32:58;98951.63;;;8.32;100.00
24031;BME280;12240;51.142;22.486;2023-04-07T06:35:26;98954.19;;;8.42;100.00
24031;BME280;12240;51.142;22.486;2023-04-07T06:37:55;98948.97;;;8.50;100.00
24031;BME280;12240;51.142;22.486;2023-04-07T06:40:23;98954.44;;;8.48;100.00
24031;BME280;12240;51.142;22.486;2023-04-07T06:42:52;98957.63;;;8.52;100.00
24031;BME280;12240;51.142;22.486;2023-04-07T06:45:28;98959.00;;;8.56;100.00
24031;BME280;12240;51.142;22.486;2023-04-07T06:47:56;98952.69;;;8.57;100.00
24031;BME280;12240;51.142;22.486;2023-04-07T06:50:24;98950.72;;;8.59;100.00
24031;BME280;12240;51.142;22.486;2023-04-07T06:52:53;98960.97;;;8.54;100.00
24031;BME280;12240;51.142;22.486;2023-04-07T06:55:24;98958.75;;;8.49;100.00
24031;BME280;12240;51.142;22.486;2023-04-07T06:57:54;98963.63;;;8.54;100.00
24031;BME280;12240;51.142;22.486;2023-04-07T07:00:22;98965.97;;;8.57;100.00
24031;BME280;12240;51.142;22.486;2023-04-07T07:02:51;98968.78;;;8.55;100.00
24031;BME280;12240;51.142;22.486;2023-04-07T07:05:19;98964.63;;;8.53;100.00
24031;BME280;12240;51.142;22.486;2023-04-07T07:07:49;98972.97;;;8.58;100.00
24031;BME280;12240;51.142;22.486;2023-04-07T07:10:18;98969.59;;;8.56;100.00
24031;BME280;12240;51.142;22.486;2023-04-07T07:12:50;98967.19;;;8.62;100.00
24031;BME280;12240;51.142;22.486;2023-04-07T07:15:20;98964.75;;;8.69;100.00
24031;BME280;12240;51.142;22.486;2023-04-07T07:17:48;98975.53;;;8.67;100.00
24031;BME280;12240;51.142;22.486;2023-04-07T07:20:17;98976.69;;;8.65;100.00
24031;BME280;12240;51.142;22.486;2023-04-07T07:22:45;98982.56;;;8.59;100.00
24031;BME280;12240;51.142;22.486;2023-04-07T07:25:14;98992.34;;;8.58;100.00
24031;BME280;12240;51.142;22.486;2023-04-07T07:27:43;98994.13;;;8.40;100.00
24031;BME280;12240;51.142;22.486;2023-04-07T07:30:12;99004.03;;;8.11;100.00
24031;BME280;12240;51.142;22.486;2023-04-07T07:32:40;99008.88;;;7.79;100.00
24031;BME280;12240;51.142;22.486;2023-04-07T07:35:09;99012.00;;;7.55;100.00
24031;BME280;12240;51.142;22.486;2023-04-07T07:37:37;99025.53;;;7.33;100.00
24031;BME280;12240;51.142;22.486;2023-04-07T07:40:06;99035.84;;;7.46;100.00
24031;BME280;12240;51.142;22.486;2023-04-07T07:42:34;99034.44;;;7.42;100.00
24031;BME280;12240;51.142;22.486;2023-04-07T07:45:04;99040.03;;;7.48;100.00
24031;BME280;12240;51.142;22.486;2023-04-07T07:47:32;99047.00;;;7.49;100.00
24031;BME280;12240;51.142;22.486;2023-04-07T07:50:03;99054.09;;;7.49;100.00
24031;BME280;12240;51.142;22.486;2023-04-07T07:52:31;99057.03;;;7.46;100.00
24031;BME280;12240;51.142;22.486;2023-04-07T07:55:00;99063.44;;;7.43;100.00
24031;BME280;12240;51.142;22.486;2023-04-07T07:57:30;99063.44;;;7.43;100.00
24031;BME280;12240;51.142;22.486;2023-04-07T07:59:59;99075.16;;;7.50;100.00
24031;BME280;12240;51.142;22.486;2023-04-07T08:02:27;99072.38;;;7.61;100.00
24031;BME280;12240;51.142;22.486;2023-04-07T08:04:58;99079.75;;;7.67;100.00
24031;BME280;12240;51.142;22.486;2023-04-07T08:07:27;99079.59;;;7.69;100.00
24031;BME280;12240;51.142;22.486;2023-04-07T08:09:56;99079.16;;;7.92;100.00
24031;BME280;12240;51.142;22.486;2023-04-07T08:12:24;99078.84;;;8.05;100.00
24031;BME280;12240;51.142;22.486;2023-04-07T08:14:53;99079.50;;;8.36;100.00
24031;BME280;12240;51.142;22.486;2023-04-07T08:17:21;99090.66;;;8.30;100.00
24031;BME280;12240;51.142;22.486;2023-04-07T08:19:49;99088.00;;;8.39;100.00
24031;BME280;12240;51.142;22.486;2023-04-07T08:22:18;99093.88;;;8.33;100.00
24031;BME280;12240;51.142;22.486;2023-04-07T08:24:49;99104.63;;;8.32;100.00
24031;BME280;12240;51.142;22.486;2023-04-07T08:27:17;99107.97;;;8.24;100.00
24031;BME280;12240;51.142;22.486;2023-04-07T08:29:56;99105.16;;;8.35;100.00
24031;BME280;12240;51.142;22.486;2023-04-07T08:32:33;99108.59;;;8.55;100.00
24031;BME280;12240;51.142;22.486;2023-04-07T08:35:02;99110.91;;;8.67;100.00
24031;BME280;12240;51.142;22.486;2023-04-07T08:37:32;99111.94;;;8.84;100.00
24031;BME280;12240;51.142;22.486;2023-04-07T08:40:02;99112.72;;;8.94;100.00
24031;BME280;12240;51.142;22.486;2023-04-07T08:42:33;99115.28;;;9.13;100.00
24031;BME280;12240;51.142;22.486;2023-04-07T08:45:06;99129.00;;;9.26;100.00
24031;BME280;12240;51.142;22.486;2023-04-07T08:47:36;99130.66;;;9.27;100.00
24031;BME280;12240;51.142;22.486;2023-04-07T08:50:10;99136.06;;;9.17;100.00
24031;BME280;12240;51.142;22.486;2023-04-07T08:52:52;99142.00;;;9.29;100.00
24031;BME280;12240;51.142;22.486;2023-04-07T08:55:22;99144.41;;;9.22;100.00
24031;BME280;12240;51.142;22.486;2023-04-07T08:57:52;99134.63;;;9.23;100.00
24031;BME280;12240;51.142;22.486;2023-04-07T09:00:21;99145.22;;;9.50;100.00
24031;BME280;12240;51.142;22.486;2023-04-07T09:02:51;99145.06;;;9.69;100.00
24031;BME280;12240;51.142;22.486;2023-04-07T09:05:19;99143.78;;;9.73;100.00
24031;BME280;12240;51.142;22.486;2023-04-07T09:07:48;99150.84;;;9.65;100.00
24031;BME280;12240;51.142;22.486;2023-04-07T09:10:17;99146.81;;;9.61;100.00
24031;BME280;12240;51.142;22.486;2023-04-07T09:12:45;99151.53;;;9.49;100.00
24031;BME280;12240;51.142;22.486;2023-04-07T09:15:14;99142.09;;;9.37;100.00
24031;BME280;12240;51.142;22.486;2023-04-07T09:17:42;99131.50;;;9.27;100.00
24031;BME280;12240;51.142;22.486;2023-04-07T09:20:11;99130.63;;;9.36;100.00
24031;BME280;12240;51.142;22.486;2023-04-07T09:22:42;99139.91;;;9.50;100.00
24031;BME280;12240;51.142;22.486;2023-04-07T09:25:23;99133.56;;;9.51;100.00
24031;BME280;12240;51.142;22.486;2023-04-07T09:27:58;99125.38;;;9.62;100.00
24031;BME280;12240;51.142;22.486;2023-04-07T09:30:29;99128.31;;;9.94;100.00
24031;BME280;12240;51.142;22.486;2023-04-07T09:32:59;99128.16;;;10.13;100.00
24031;BME280;12240;51.142;22.486;2023-04-07T09:35:28;99123.84;;;10.12;100.00
24031;BME280;12240;51.142;22.486;2023-04-07T09:38:06;99129.84;;;9.97;100.00
24031;BME280;12240;51.142;22.486;2023-04-07T09:40:35;99128.72;;;9.64;100.00
24031;BME280;12240;51.142;22.486;2023-04-07T09:43:15;99130.22;;;9.67;100.00
24031;BME280;12240;51.142;22.486;2023-04-07T09:45:44;99126.66;;;9.76;100.00
24031;BME280;12240;51.142;22.486;2023-04-07T09:48:20;99135.34;;;9.78;100.00
24031;BME280;12240;51.142;22.486;2023-04-07T09:50:49;99127.34;;;9.78;100.00
24031;BME280;12240;51.142;22.486;2023-04-07T09:53:20;99132.88;;;9.84;100.00
24031;BME280;12240;51.142;22.486;2023-04-07T09:55:50;99134.13;;;9.72;100.00
24031;BME280;12240;51.142;22.486;2023-04-07T09:58:19;99142.84;;;9.82;100.00
24031;BME280;12240;51.142;22.486;2023-04-07T10:00:48;99136.03;;;9.62;100.00
24031;BME280;12240;51.142;22.486;2023-04-07T10:03:17;99132.00;;;9.40;100.00
24031;BME280;12240;51.142;22.486;2023-04-07T10:05:46;99138.06;;;9.33;100.00
24031;BME280;12240;51.142;22.486;2023-04-07T10:08:15;99142.66;;;9.13;100.00
24031;BME280;12240;51.142;22.486;2023-04-07T10:10:45;99140.78;;;8.96;100.00
24031;BME280;12240;51.142;22.486;2023-04-07T10:13:14;99155.94;;;8.86;100.00
24031;BME280;12240;51.142;22.486;2023-04-07T10:15:43;99153.06;;;8.70;100.00
24031;BME280;12240;51.142;22.486;2023-04-07T10:18:11;99157.56;;;8.70;100.00
24031;BME280;12240;51.142;22.486;2023-04-07T10:20:41;99158.66;;;8.67;100.00
24031;BME280;12240;51.142;22.486;2023-04-07T10:26:10;99177.22;;;8.21;100.00
24031;BME280;12240;51.142;22.486;2023-04-07T10:28:40;99176.81;;;7.97;100.00
24031;BME280;12240;51.142;22.486;2023-04-07T10:31:11;99180.03;;;7.91;100.00
24031;BME280;12240;51.142;22.486;2023-04-07T10:36:22;99190.25;;;7.86;100.00
24031;BME280;12240;51.142;22.486;2023-04-07T10:41:41;99191.72;;;8.17;100.00
24031;BME280;12240;51.142;22.486;2023-04-07T10:47:10;99192.03;;;8.23;100.00
24031;BME280;12240;51.142;22.486;2023-04-07T10:49:39;99185.31;;;8.39;100.00
24031;BME280;12240;51.142;22.486;2023-04-07T10:54:42;99179.50;;;8.72;100.00
24031;BME280;12240;51.142;22.486;2023-04-07T10:57:16;99176.78;;;8.81;100.00
24031;BME280;12240;51.142;22.486;2023-04-07T11:02:39;99193.97;;;8.87;100.00
24031;BME280;12240;51.142;22.486;2023-04-07T11:05:18;99184.97;;;8.97;100.00
24031;BME280;12240;51.142;22.486;2023-04-07T11:07:50;99181.53;;;8.78;100.00
24031;BME280;12240;51.142;22.486;2023-04-07T11:10:19;99184.81;;;8.62;100.00
24031;BME280;12240;51.142;22.486;2023-04-07T11:13:04;99187.06;;;8.57;100.00
24031;BME280;12240;51.142;22.486;2023-04-07T11:15:37;99187.56;;;8.70;100.00
24031;BME280;12240;51.142;22.486;2023-04-07T11:18:16;99186.91;;;8.59;100.00
24031;BME280;12240;51.142;22.486;2023-04-07T11:20:53;99190.72;;;8.47;100.00
24031;BME280;12240;51.142;22.486;2023-04-07T11:23:22;99197.06;;;8.27;100.00
24031;BME280;12240;51.142;22.486;2023-04-07T11:26:02;99198.03;;;8.06;100.00
24031;BME280;12240;51.142;22.486;2023-04-07T11:28:31;99199.84;;;7.96;100.00
24031;BME280;12240;51.142;22.486;2023-04-07T11:31:00;99199.56;;;8.09;100.00
24031;BME280;12240;51.142;22.486;2023-04-07T11:33:30;99205.44;;;8.32;100.00
24031;BME280;12240;51.142;22.486;2023-04-07T11:36:01;99203.69;;;8.50;100.00
24031;BME280;12240;51.142;22.486;2023-04-07T11:38:36;99206.13;;;8.80;100.00
24031;BME280;12240;51.142;22.486;2023-04-07T11:41:13;99203.97;;;8.93;100.00
24031;BME280;12240;51.142;22.486;2023-04-07T11:43:42;99200.28;;;8.76;100.00
24031;BME280;12240;51.142;22.486;2023-04-07T11:46:16;99209.25;;;8.66;100.00
24031;BME280;12240;51.142;22.486;2023-04-07T11:48:45;99199.47;;;8.66;100.00
24031;BME280;12240;51.142;22.486;2023-04-07T11:51:22;99203.31;;;8.91;100.00
24031;BME280;12240;51.142;22.486;2023-04-07T11:53:55;99210.28;;;9.19;100.00
24031;BME280;12240;51.142;22.486;2023-04-07T11:56:25;99207.31;;;9.04;100.00
24031;BME280;12240;51.142;22.486;2023-04-07T11:58:55;99202.22;;;9.11;100.00
24031;BME280;12240;51.142;22.486;2023-04-07T12:01:41;99201.88;;;8.96;100.00
24031;BME280;12240;51.142;22.486;2023-04-07T12:04:12;99198.88;;;8.72;100.00
24031;BME280;12240;51.142;22.486;2023-04-07T12:06:46;99212.34;;;8.52;100.00
24031;BME280;12240;51.142;22.486;2023-04-07T12:09:27;99219.75;;;8.58;100.00
24031;BME280;12240;51.142;22.486;2023-04-07T12:11:57;99221.31;;;8.41;100.00
24031;BME280;12240;51.142;22.486;2023-04-07T12:14:26;99222.00;;;8.53;100.00
24031;BME280;12240;51.142;22.486;2023-04-07T12:16:55;99220.75;;;8.38;100.00
24031;BME280;12240;51.142;22.486;2023-04-07T12:19:26;99219.94;;;8.37;100.00
24031;BME280;12240;51.142;22.486;2023-04-07T12:22:00;99216.84;;;8.51;100.00
24031;BME280;12240;51.142;22.486;2023-04-07T12:24:28;99225.72;;;8.69;100.00
24031;BME280;12240;51.142;22.486;2023-04-07T12:26:58;99228.78;;;8.84;100.00
24031;BME280;12240;51.142;22.486;2023-04-07T12:29:27;99226.31;;;9.00;100.00
24031;BME280;12240;51.142;22.486;2023-04-07T12:31:57;99232.75;;;9.52;100.00
24031;BME280;12240;51.142;22.486;2023-04-07T12:34:26;99231.59;;;9.81;100.00
24031;BME280;12240;51.142;22.486;2023-04-07T12:36:55;99226.44;;;9.97;100.00
24031;BME280;12240;51.142;22.486;2023-04-07T12:39:23;99222.44;;;10.11;100.00
24031;BME280;12240;51.142;22.486;2023-04-07T12:41:52;99223.09;;;9.95;100.00
24031;BME280;12240;51.142;22.486;2023-04-07T12:44:20;99211.47;;;10.31;100.00
24031;BME280;12240;51.142;22.486;2023-04-07T12:46:48;99218.94;;;10.53;100.00
24031;BME280;12240;51.142;22.486;2023-04-07T12:49:17;99218.75;;;10.73;100.00
24031;BME280;12240;51.142;22.486;2023-04-07T12:51:46;99211.69;;;10.20;100.00
24031;BME280;12240;51.142;22.486;2023-04-07T12:54:14;99215.13;;;9.95;100.00
24031;BME280;12240;51.142;22.486;2023-04-07T12:56:43;99220.69;;;9.57;100.00
24031;BME280;12240;51.142;22.486;2023-04-07T12:59:11;99230.66;;;9.55;100.00
24031;BME280;12240;51.142;22.486;2023-04-07T13:01:40;99230.97;;;9.70;100.00
24031;BME280;12240;51.142;22.486;2023-04-07T13:04:09;99237.59;;;9.83;100.00
24031;BME280;12240;51.142;22.486;2023-04-07T13:06:38;99231.94;;;9.69;100.00
24031;BME280;12240;51.142;22.486;2023-04-07T13:09:07;99235.38;;;9.79;100.00
24031;BME280;12240;51.142;22.486;2023-04-07T13:11:35;99246.94;;;9.42;100.00
24031;BME280;12240;51.142;22.486;2023-04-07T13:14:03;99249.78;;;9.59;100.00
24031;BME280;12240;51.142;22.486;2023-04-07T13:16:31;99236.38;;;9.33;100.00
24031;BME280;12240;51.142;22.486;2023-04-07T13:19:01;99251.91;;;9.55;100.00
24031;BME280;12240;51.142;22.486;2023-04-07T13:21:29;99256.94;;;9.76;100.00
24031;BME280;12240;51.142;22.486;2023-04-07T13:24:00;99254.00;;;9.79;100.00
24031;BME280;12240;51.142;22.486;2023-04-07T13:26:28;99258.84;;;9.66;100.00
24031;BME280;12240;51.142;22.486;2023-04-07T13:28:57;99264.34;;;9.82;100.00
24031;BME280;12240;51.142;22.486;2023-04-07T13:31:25;99271.31;;;9.83;100.00